sensor_id;sensor_type;location;lat;lon;timestamp;temperature;humidity
22996;DHT22;11664;49.774;8.650;2024-03-23T00:52:07;12.60;99.90
22996;DHT22;11664;49.774;8.650;2024-03-23T00:54:32;12.80;99.90
22996;DHT22;11664;49.774;8.650;2024-03-23T00:57:01;12.90;99.90
22996;DHT22;11664;49.774;8.650;2024-03-23T00:59:32;12.90;99.90
22996;DHT22;11664;49.774;8.650;2024-03-23T01:01:58;13.00;99.90
22996;DHT22;11664;49.774;8.650;2024-03-23T01:04:23;13.10;99.90
22996;DHT22;11664;49.774;8.650;2024-03-23T01:07:01;13.30;99.90
22996;DHT22;11664;49.774;8.650;2024-03-23T01:09:26;13.20;99.90
22996;DHT22;11664;49.774;8.650;2024-03-23T01:11:54;13.20;99.90
22996;DHT22;11664;49.774;8.650;2024-03-23T01:14:25;13.30;99.90
22996;DHT22;11664;49.774;8.650;2024-03-23T01:16:51;13.30;99.90
22996;DHT22;11664;49.774;8.650;2024-03-23T01:19:19;13.30;99.90
22996;DHT22;11664;49.774;8.650;2024-03-23T01:21:48;13.30;99.90
22996;DHT22;11664;49.774;8.650;2024-03-23T01:24:20;13.30;99.90
22996;DHT22;11664;49.774;8.650;2024-03-23T01:26:46;13.40;99.90
22996;DHT22;11664;49.774;8.650;2024-03-23T01:29:11;13.50;99.90
22996;DHT22;11664;49.774;8.650;2024-03-23T01:31:40;13.50;99.90
22996;DHT22;11664;49.774;8.650;2024-03-23T01:34:11;13.50;99.90
22996;DHT22;11664;49.774;8.650;2024-03-23T01:36:40;13.40;99.90
22996;DHT22;11664;49.774;8.650;2024-03-23T01:39:15;13.50;99.90
22996;DHT22;11664;49.774;8.650;2024-03-23T01:41:41;13.50;99.90
22996;DHT22;11664;49.774;8.650;2024-03-23T01:44:11;13.60;99.90
22996;DHT22;11664;49.774;8.650;2024-03-23T01:46:37;13.60;99.90
22996;DHT22;11664;49.774;8.650;2024-03-23T01:49:10;13.90;99.90
22996;DHT22;11664;49.774;8.650;2024-03-23T01:51:36;13.90;99.90
22996;DHT22;11664;49.774;8.650;2024-03-23T01:54:08;13.80;99.90
22996;DHT22;11664;49.774;8.650;2024-03-23T01:56:35;13.70;99.90
22996;DHT22;11664;49.774;8.650;2024-03-23T01:59:07;13.60;99.90
22996;DHT22;11664;49.774;8.650;2024-03-23T02:01:34;13.40;99.90
22996;DHT22;11664;49.774;8.650;2024-03-23T02:04:01;13.20;99.90
22996;DHT22;11664;49.774;8.650;2024-03-23T02:06:33;13.10;99.90
22996;DHT22;11664;49.774;8.650;2024-03-23T02:08:59;13.00;99.90
22996;DHT22;11664;49.774;8.650;2024-03-23T02:11:31;12.90;99.90
22996;DHT22;11664;49.774;8.650;2024-03-23T02:13:57;12.90;99.90
22996;DHT22;11664;49.774;8.650;2024-03-23T02:16:26;12.90;99.90
22996;DHT22;11664;49.774;8.650;2024-03-23T02:18:52;12.80;99.90
22996;DHT22;11664;49.774;8.650;2024-03-23T02:21:17;12.70;99.90
22996;DHT22;11664;49.774;8.650;2024-03-23T02:23:52;12.60;99.90
22996;DHT22;11664;49.774;8.650;2024-03-23T02:26:17;12.30;99.90
22996;DHT22;11664;49.774;8.650;2024-03-23T02:28:45;12.20;99.90
22996;DHT22;11664;49.774;8.650;2024-03-23T02:31:11;12.00;99.90
22996;DHT22;11664;49.774;8.650;2024-03-23T02:33:42;11.90;99.90
22996;DHT22;11664;49.774;8.650;2024-03-23T02:36:11;11.70;99.90
22996;DHT22;11664;49.774;8.650;2024-03-23T02:38:39;11.60;99.90
22996;DHT22;11664;49.774;8.650;2024-03-23T02:41:05;11.50;99.90
22996;DHT22;11664;49.774;8.650;2024-03-23T02:43:34;11.50;99.90
22996;DHT22;11664;49.774;8.650;2024-03-23T02:45:59;11.60;99.90
22996;DHT22;11664;49.774;8.650;2024-03-23T02:48:32;11.60;99.90
22996;DHT22;11664;49.774;8.650;2024-03-23T02:50:58;11.60;99.90
22996;DHT22;11664;49.774;8.650;2024-03-23T02:53:30;11.60;99.90
22996;DHT22;11664;49.774;8.650;2024-03-23T02:55:58;11.70;99.90
22996;DHT22;11664;49.774;8.650;2024-03-23T02:58:24;11.70;99.90
22996;DHT22;11664;49.774;8.650;2024-03-23T03:00:49;11.80;99.90
22996;DHT22;11664;49.774;8.650;2024-03-23T03:03:18;11.80;99.90
22996;DHT22;11664;49.774;8.650;2024-03-23T03:05:47;11.90;99.90
22996;DHT22;11664;49.774;8.650;2024-03-23T03:08:12;11.90;99.90
22996;DHT22;11664;49.774;8.650;2024-03-23T03:10:38;11.90;99.90
22996;DHT22;11664;49.774;8.650;2024-03-23T03:13:12;11.90;99.90
22996;DHT22;11664;49.774;8.650;2024-03-23T03:15:40;12.00;99.90
22996;DHT22;11664;49.774;8.650;2024-03-23T03:18:09;12.00;99.90
22996;DHT22;11664;49.774;8.650;2024-03-23T03:20:40;12.00;99.90
22996;DHT22;11664;49.774;8.650;2024-03-23T03:23:06;11.90;99.90
22996;DHT22;11664;49.774;8.650;2024-03-23T03:25:32;11.90;99.90
22996;DHT22;11664;49.774;8.650;2024-03-23T03:28:00;12.00;99.90
22996;DHT22;11664;49.774;8.650;2024-03-23T03:30:27;11.90;99.90
22996;DHT22;11664;49.774;8.650;2024-03-23T03:33:02;11.90;99.90
22996;DHT22;11664;49.774;8.650;2024-03-23T03:35:30;12.00;99.90
22996;DHT22;11664;49.774;8.650;2024-03-23T03:37:56;11.90;99.90
22996;DHT22;11664;49.774;8.650;2024-03-23T03:40:27;12.00;99.90
22996;DHT22;11664;49.774;8.650;2024-03-23T03:42:52;12.00;99.90
22996;DHT22;11664;49.774;8.650;2024-03-23T03:45:21;12.10;99.90
22996;DHT22;11664;49.774;8.650;2024-03-23T03:47:48;12.00;99.90
22996;DHT22;11664;49.774;8.650;2024-03-23T03:50:14;12.00;99.90
22996;DHT22;11664;49.774;8.650;2024-03-23T03:52:39;12.00;99.90
22996;DHT22;11664;49.774;8.650;2024-03-23T03:55:13;11.90;99.90
22996;DHT22;11664;49.774;8.650;2024-03-23T03:57:39;11.80;99.90
22996;DHT22;11664;49.774;8.650;2024-03-23T04:00:11;11.80;99.90
22996;DHT22;11664;49.774;8.650;2024-03-23T04:02:38;11.80;99.90
22996;DHT22;11664;49.774;8.650;2024-03-23T04:05:07;11.80;99.90
22996;DHT22;11664;49.774;8.650;2024-03-23T04:07:33;11.80;99.90
22996;DHT22;11664;49.774;8.650;2024-03-23T04:09:59;11.80;99.90
22996;DHT22;11664;49.774;8.650;2024-03-23T04:12:27;11.80;99.90
22996;DHT22;11664;49.774;8.650;2024-03-23T04:14:53;11.70;99.90
22996;DHT22;11664;49.774;8.650;2024-03-23T04:17:19;11.70;99.90
22996;DHT22;11664;49.774;8.650;2024-03-23T04:19:44;11.70;99.90
22996;DHT22;11664;49.774;8.650;2024-03-23T04:22:19;11.80;99.90
22996;DHT22;11664;49.774;8.650;2024-03-23T04:24:55;11.70;99.90
22996;DHT22;11664;49.774;8.650;2024-03-23T04:27:27;11.80;99.90
22996;DHT22;11664;49.774;8.650;2024-03-23T04:29:53;11.70;99.90
22996;DHT22;11664;49.774;8.650;2024-03-23T04:32:27;11.80;99.90
22996;DHT22;11664;49.774;8.650;2024-03-23T04:35:08;11.80;99.90
22996;DHT22;11664;49.774;8.650;2024-03-23T04:37:37;11.80;99.90
22996;DHT22;11664;49.774;8.650;2024-03-23T04:40:03;11.70;99.90
22996;DHT22;11664;49.774;8.650;2024-03-23T04:42:30;11.70;99.90
22996;DHT22;11664;49.774;8.650;2024-03-23T04:44:55;11.70;99.90
22996;DHT22;11664;49.774;8.650;2024-03-23T04:47:21;11.60;99.90
22996;DHT22;11664;49.774;8.650;2024-03-23T04:49:46;11.50;99.90
22996;DHT22;11664;49.774;8.650;2024-03-23T04:52:17;11.40;99.90
22996;DHT22;11664;49.774;8.650;2024-03-23T04:54:42;10.30;99.90
22996;DHT22;11664;49.774;8.650;2024-03-23T04:57:11;9.90;99.90
22996;DHT22;11664;49.774;8.650;2024-03-23T04:59:40;9.50;99.90
22996;DHT22;11664;49.774;8.650;2024-03-23T05:02:17;9.40;99.90
22996;DHT22;11664;49.774;8.650;2024-03-23T05:04:42;9.20;99.90
22996;DHT22;11664;49.774;8.650;2024-03-23T05:07:11;9.20;99.90
22996;DHT22;11664;49.774;8.650;2024-03-23T05:09:37;9.10;99.90
22996;DHT22;11664;49.774;8.650;2024-03-23T05:12:05;9.10;99.90
22996;DHT22;11664;49.774;8.650;2024-03-23T05:14:34;9.00;99.90
22996;DHT22;11664;49.774;8.650;2024-03-23T05:17:14;8.70;99.90
22996;DHT22;11664;49.774;8.650;2024-03-23T05:19:46;8.60;99.90
22996;DHT22;11664;49.774;8.650;2024-03-23T05:22:18;8.50;99.90
22996;DHT22;11664;49.774;8.650;2024-03-23T05:24:49;8.40;99.90
22996;DHT22;11664;49.774;8.650;2024-03-23T05:27:15;8.50;99.90
22996;DHT22;11664;49.774;8.650;2024-03-23T05:29:47;8.40;99.90
22996;DHT22;11664;49.774;8.650;2024-03-23T05:32:15;8.40;99.90
22996;DHT22;11664;49.774;8.650;2024-03-23T05:34:44;8.40;99.90
22996;DHT22;11664;49.774;8.650;2024-03-23T05:37:16;8.40;99.90
22996;DHT22;11664;49.774;8.650;2024-03-23T05:39:44;8.20;99.90
22996;DHT22;11664;49.774;8.650;2024-03-23T05:42:09;8.20;99.90
22996;DHT22;11664;49.774;8.650;2024-03-23T05:44:35;8.40;99.90
22996;DHT22;11664;49.774;8.650;2024-03-23T05:47:01;8.40;99.90
22996;DHT22;11664;49.774;8.650;2024-03-23T05:49:29;8.40;99.90
22996;DHT22;11664;49.774;8.650;2024-03-23T05:52:04;8.40;99.90
22996;DHT22;11664;49.774;8.650;2024-03-23T05:54:32;8.30;99.90
22996;DHT22;11664;49.774;8.650;2024-03-23T05:57:00;8.20;99.90
22996;DHT22;11664;49.774;8.650;2024-03-23T05:59:26;8.00;99.90
22996;DHT22;11664;49.774;8.650;2024-03-23T06:01:52;8.00;99.90
22996;DHT22;11664;49.774;8.650;2024-03-23T06:04:27;7.90;99.90
22996;DHT22;11664;49.774;8.650;2024-03-23T06:06:58;8.10;99.90
22996;DHT22;11664;49.774;8.650;2024-03-23T06:09:30;7.90;99.90
22996;DHT22;11664;49.774;8.650;2024-03-23T06:11:59;7.90;99.90
22996;DHT22;11664;49.774;8.650;2024-03-23T06:14:28;8.00;99.90
22996;DHT22;11664;49.774;8.650;2024-03-23T06:16:56;7.90;99.90
22996;DHT22;11664;49.774;8.650;2024-03-23T06:19:22;7.90;99.90
22996;DHT22;11664;49.774;8.650;2024-03-23T06:21:50;7.90;99.90
22996;DHT22;11664;49.774;8.650;2024-03-23T06:24:28;7.70;99.90
22996;DHT22;11664;49.774;8.650;2024-03-23T06:26:54;7.90;99.90
22996;DHT22;11664;49.774;8.650;2024-03-23T06:29:19;8.00;99.90
22996;DHT22;11664;49.774;8.650;2024-03-23T06:31:53;8.00;99.90
22996;DHT22;11664;49.774;8.650;2024-03-23T06:34:37;8.00;99.90
22996;DHT22;11664;49.774;8.650;2024-03-23T06:37:03;7.80;99.90
22996;DHT22;11664;49.774;8.650;2024-03-23T06:39:28;7.80;99.90
22996;DHT22;11664;49.774;8.650;2024-03-23T06:41:54;7.80;99.90
22996;DHT22;11664;49.774;8.650;2024-03-23T06:44:29;7.80;99.90
22996;DHT22;11664;49.774;8.650;2024-03-23T06:46:55;7.80;99.90
22996;DHT22;11664;49.774;8.650;2024-03-23T06:49:27;7.80;99.90
22996;DHT22;11664;49.774;8.650;2024-03-23T06:51:52;7.70;99.90
22996;DHT22;11664;49.774;8.650;2024-03-23T06:54:33;7.70;99.90
22996;DHT22;11664;49.774;8.650;2024-03-23T06:56:59;7.70;99.90
22996;DHT22;11664;49.774;8.650;2024-03-23T06:59:30;7.60;99.90
22996;DHT22;11664;49.774;8.650;2024-03-23T07:01:55;7.60;99.90
22996;DHT22;11664;49.774;8.650;2024-03-23T07:04:21;7.40;99.90
22996;DHT22;11664;49.774;8.650;2024-03-23T07:06:50;7.40;99.90
22996;DHT22;11664;49.774;8.650;2024-03-23T07:09:18;7.50;99.90
22996;DHT22;11664;49.774;8.650;2024-03-23T07:11:45;7.30;99.90
22996;DHT22;11664;49.774;8.650;2024-03-23T07:14:19;7.30;99.90
22996;DHT22;11664;49.774;8.650;2024-03-23T07:16:45;7.30;99.90
22996;DHT22;11664;49.774;8.650;2024-03-23T07:19:10;7.40;99.90
22996;DHT22;11664;49.774;8.650;2024-03-23T07:21:43;7.50;99.90
22996;DHT22;11664;49.774;8.650;2024-03-23T07:24:11;7.30;99.90
22996;DHT22;11664;49.774;8.650;2024-03-23T07:26:43;7.30;99.90
22996;DHT22;11664;49.774;8.650;2024-03-23T07:29:12;7.50;99.90
22996;DHT22;11664;49.774;8.650;2024-03-23T07:31:50;7.50;99.90
22996;DHT22;11664;49.774;8.650;2024-03-23T07:34:18;7.40;99.90
22996;DHT22;11664;49.774;8.650;2024-03-23T07:36:56;7.30;99.90
22996;DHT22;11664;49.774;8.650;2024-03-23T07:39:27;7.30;99.90
22996;DHT22;11664;49.774;8.650;2024-03-23T07:41:56;7.20;99.90
22996;DHT22;11664;49.774;8.650;2024-03-23T07:44:21;7.20;99.90
22996;DHT22;11664;49.774;8.650;2024-03-23T07:46:47;7.30;99.90
22996;DHT22;11664;49.774;8.650;2024-03-23T07:49:12;7.30;99.90
22996;DHT22;11664;49.774;8.650;2024-03-23T07:51:41;7.30;99.90
22996;DHT22;11664;49.774;8.650;2024-03-23T07:54:06;7.40;99.90
22996;DHT22;11664;49.774;8.650;2024-03-23T07:56:32;7.50;99.90
22996;DHT22;11664;49.774;8.650;2024-03-23T07:58:57;7.40;99.90
22996;DHT22;11664;49.774;8.650;2024-03-23T08:01:23;7.40;99.90
22996;DHT22;11664;49.774;8.650;2024-03-23T08:03:52;7.70;99.90
22996;DHT22;11664;49.774;8.650;2024-03-23T08:06:20;7.90;99.90
22996;DHT22;11664;49.774;8.650;2024-03-23T08:08:48;7.90;99.90
22996;DHT22;11664;49.774;8.650;2024-03-23T08:11:14;7.90;99.90
22996;DHT22;11664;49.774;8.650;2024-03-23T08:13:41;7.70;99.90
22996;DHT22;11664;49.774;8.650;2024-03-23T08:16:07;7.70;99.90
22996;DHT22;11664;49.774;8.650;2024-03-23T08:18:34;7.60;99.90
22996;DHT22;11664;49.774;8.650;2024-03-23T08:21:06;7.70;99.90
22996;DHT22;11664;49.774;8.650;2024-03-23T08:23:34;7.70;99.90
22996;DHT22;11664;49.774;8.650;2024-03-23T08:26:11;7.40;99.90
22996;DHT22;11664;49.774;8.650;2024-03-23T08:28:40;7.50;99.90
22996;DHT22;11664;49.774;8.650;2024-03-23T08:31:18;7.70;99.90
22996;DHT22;11664;49.774;8.650;2024-03-23T08:33:44;7.70;99.90
22996;DHT22;11664;49.774;8.650;2024-03-23T08:36:10;7.50;99.90
22996;DHT22;11664;49.774;8.650;2024-03-23T08:38:39;7.80;99.90
22996;DHT22;11664;49.774;8.650;2024-03-23T08:41:07;8.10;99.90
22996;DHT22;11664;49.774;8.650;2024-03-23T08:43:45;8.00;99.90
22996;DHT22;11664;49.774;8.650;2024-03-23T08:46:12;8.30;99.90
22996;DHT22;11664;49.774;8.650;2024-03-23T08:48:39;8.60;99.90
22996;DHT22;11664;49.774;8.650;2024-03-23T08:51:06;8.70;99.90
22996;DHT22;11664;49.774;8.650;2024-03-23T08:53:33;8.60;99.90
22996;DHT22;11664;49.774;8.650;2024-03-23T08:56:00;8.50;99.90
22996;DHT22;11664;49.774;8.650;2024-03-23T08:58:27;8.70;99.90
22996;DHT22;11664;49.774;8.650;2024-03-23T09:01:10;8.70;99.90
22996;DHT22;11664;49.774;8.650;2024-03-23T09:03:36;8.70;99.90
22996;DHT22;11664;49.774;8.650;2024-03-23T09:06:06;8.80;99.90
22996;DHT22;11664;49.774;8.650;2024-03-23T09:08:31;9.00;99.90
22996;DHT22;11664;49.774;8.650;2024-03-23T09:11:04;9.10;99.90
22996;DHT22;11664;49.774;8.650;2024-03-23T09:13:34;8.90;99.90
22996;DHT22;11664;49.774;8.650;2024-03-23T09:16:00;9.10;99.90
22996;DHT22;11664;49.774;8.650;2024-03-23T09:18:32;9.00;99.90
22996;DHT22;11664;49.774;8.650;2024-03-23T09:20:57;9.00;99.90
22996;DHT22;11664;49.774;8.650;2024-03-23T09:23:23;8.90;99.90
22996;DHT22;11664;49.774;8.650;2024-03-23T09:25:49;9.00;99.90
22996;DHT22;11664;49.774;8.650;2024-03-23T09:28:14;9.10;99.90
22996;DHT22;11664;49.774;8.650;2024-03-23T09:30:43;9.00;99.90
22996;DHT22;11664;49.774;8.650;2024-03-23T09:33:09;9.10;99.90
22996;DHT22;11664;49.774;8.650;2024-03-23T09:35:54;9.20;99.90
22996;DHT22;11664;49.774;8.650;2024-03-23T09:38:29;9.40;99.90
22996;DHT22;11664;49.774;8.650;2024-03-23T09:40:58;9.50;99.90
22996;DHT22;11664;49.774;8.650;2024-03-23T09:43:26;9.70;99.90
22996;DHT22;11664;49.774;8.650;2024-03-23T09:45:52;9.50;99.90
22996;DHT22;11664;49.774;8.650;2024-03-23T09:48:21;9.80;99.90
22996;DHT22;11664;49.774;8.650;2024-03-23T09:50:48;9.80;99.90
22996;DHT22;11664;49.774;8.650;2024-03-23T09:53:20;9.60;99.90
22996;DHT22;11664;49.774;8.650;2024-03-23T09:55:50;9.50;99.90
22996;DHT22;11664;49.774;8.650;2024-03-23T09:58:17;10.00;99.90
22996;DHT22;11664;49.774;8.650;2024-03-23T10:00:43;10.20;99.90
22996;DHT22;11664;49.774;8.650;2024-03-23T10:03:11;10.10;99.90
22996;DHT22;11664;49.774;8.650;2024-03-23T10:05:37;10.00;99.90
22996;DHT22;11664;49.774;8.650;2024-03-23T10:08:18;10.00;99.90
22996;DHT22;11664;49.774;8.650;2024-03-23T10:10:46;9.80;99.90
22996;DHT22;11664;49.774;8.650;2024-03-23T10:13:24;9.80;99.90
22996;DHT22;11664;49.774;8.650;2024-03-23T10:16:00;9.60;99.90
22996;DHT22;11664;49.774;8.650;2024-03-23T10:18:26;9.60;99.90
22996;DHT22;11664;49.774;8.650;2024-03-23T10:23:36;9.90;99.90
22996;DHT22;11664;49.774;8.650;2024-03-23T10:28:58;10.80;99.90
22996;DHT22;11664;49.774;8.650;2024-03-23T10:31:27;10.50;99.90
22996;DHT22;11664;49.774;8.650;2024-03-23T10:33:53;10.90;99.90
22996;DHT22;11664;49.774;8.650;2024-03-23T10:36:26;10.70;99.90
22996;DHT22;11664;49.774;8.650;2024-03-23T10:38:55;10.90;99.90
22996;DHT22;11664;49.774;8.650;2024-03-23T10:41:26;10.80;99.90
22996;DHT22;11664;49.774;8.650;2024-03-23T10:43:51;10.30;99.90
22996;DHT22;11664;49.774;8.650;2024-03-23T10:46:26;10.00;99.90
22996;DHT22;11664;49.774;8.650;2024-03-23T10:48:52;10.10;99.90
22996;DHT22;11664;49.774;8.650;2024-03-23T10:51:17;10.00;99.90
22996;DHT22;11664;49.774;8.650;2024-03-23T10:53:46;9.80;99.90
22996;DHT22;11664;49.774;8.650;2024-03-23T10:56:13;9.60;99.90
22996;DHT22;11664;49.774;8.650;2024-03-23T10:58:49;9.30;99.90
22996;DHT22;11664;49.774;8.650;2024-03-23T11:01:15;9.00;99.90
22996;DHT22;11664;49.774;8.650;2024-03-23T11:03:45;8.90;99.90
22996;DHT22;11664;49.774;8.650;2024-03-23T11:08:59;8.20;99.90
22996;DHT22;11664;49.774;8.650;2024-03-23T11:11:25;7.80;99.90
22996;DHT22;11664;49.774;8.650;2024-03-23T11:13:52;7.50;99.90
22996;DHT22;11664;49.774;8.650;2024-03-23T11:16:26;7.50;99.90
22996;DHT22;11664;49.774;8.650;2024-03-23T11:19:37;7.50;99.90
22996;DHT22;11664;49.774;8.650;2024-03-23T11:22:05;7.30;99.90
22996;DHT22;11664;49.774;8.650;2024-03-23T11:24:31;7.20;99.90
22996;DHT22;11664;49.774;8.650;2024-03-23T11:26:57;7.50;99.90
22996;DHT22;11664;49.774;8.650;2024-03-23T11:29:32;7.60;99.90
22996;DHT22;11664;49.774;8.650;2024-03-23T11:31:57;7.40;99.90
22996;DHT22;11664;49.774;8.650;2024-03-23T11:34:24;7.90;99.90
22996;DHT22;11664;49.774;8.650;2024-03-23T11:36:50;8.50;99.90
22996;DHT22;11664;49.774;8.650;2024-03-23T11:39:17;8.50;99.90
22996;DHT22;11664;49.774;8.650;2024-03-23T11:41:53;8.40;99.90
22996;DHT22;11664;49.774;8.650;2024-03-23T11:44:20;9.40;99.90
22996;DHT22;11664;49.774;8.650;2024-03-23T11:46:46;8.70;99.90
22996;DHT22;11664;49.774;8.650;2024-03-23T11:49:33;8.80;99.90
22996;DHT22;11664;49.774;8.650;2024-03-23T11:52:02;8.70;99.90
22996;DHT22;11664;49.774;8.650;2024-03-23T11:54:28;8.90;99.90
22996;DHT22;11664;49.774;8.650;2024-03-23T11:57:01;8.90;99.90
22996;DHT22;11664;49.774;8.650;2024-03-23T11:59:37;8.60;99.90
22996;DHT22;11664;49.774;8.650;2024-03-23T12:04:33;9.20;99.90
22996;DHT22;11664;49.774;8.650;2024-03-23T12:07:18;9.00;99.90
22996;DHT22;11664;49.774;8.650;2024-03-23T12:09:44;9.10;99.90
22996;DHT22;11664;49.774;8.650;2024-03-23T12:12:16;9.00;99.90
22996;DHT22;11664;49.774;8.650;2024-03-23T12:14:45;8.90;99.90
22996;DHT22;11664;49.774;8.650;2024-03-23T12:17:25;9.00;99.90
22996;DHT22;11664;49.774;8.650;2024-03-23T12:19:51;8.90;99.90
22996;DHT22;11664;49.774;8.650;2024-03-23T12:22:20;9.50;99.90
22996;DHT22;11664;49.774;8.650;2024-03-23T12:24:46;9.80;99.90
22996;DHT22;11664;49.774;8.650;2024-03-23T12:27:11;9.80;99.90
22996;DHT22;11664;49.774;8.650;2024-03-23T12:29:37;9.60;99.90
22996;DHT22;11664;49.774;8.650;2024-03-23T12:32:04;9.60;99.90
22996;DHT22;11664;49.774;8.650;2024-03-23T12:34:30;9.60;99.90
22996;DHT22;11664;49.774;8.650;2024-03-23T12:36:56;9.50;99.90
22996;DHT22;11664;49.774;8.650;2024-03-23T12:39:25;9.40;99.90
22996;DHT22;11664;49.774;8.650;2024-03-23T12:41:56;9.30;99.90
22996;DHT22;11664;49.774;8.650;2024-03-23T12:44:31;9.10;99.90
22996;DHT22;11664;49.774;8.650;2024-03-23T12:46:57;9.00;99.90
22996;DHT22;11664;49.774;8.650;2024-03-23T12:49:25;9.00;99.90
22996;DHT22;11664;49.774;8.650;2024-03-23T12:51:55;9.10;99.90
22996;DHT22;11664;49.774;8.650;2024-03-23T12:54:22;8.90;99.90
22996;DHT22;11664;49.774;8.650;2024-03-23T12:56:50;8.90;99.90
22996;DHT22;11664;49.774;8.650;2024-03-23T12:59:16;8.70;99.90
22996;DHT22;11664;49.774;8.650;2024-03-23T13:01:49;8.20;99.90
22996;DHT22;11664;49.774;8.650;2024-03-23T13:04:15;8.30;99.90
22996;DHT22;11664;49.774;8.650;2024-03-23T13:06:41;8.30;99.90
22996;DHT22;11664;49.774;8.650;2024-03-23T13:09:07;8.30;99.90
22996;DHT22;11664;49.774;8.650;2024-03-23T13:11:42;8.40;99.90
22996;DHT22;11664;49.774;8.650;2024-03-23T13:14:07;8.30;99.90
22996;DHT22;11664;49.774;8.650;2024-03-23T13:16:36;8.20;99.90
22996;DHT22;11664;49.774;8.650;2024-03-23T13:19:04;8.10;99.90
22996;DHT22;11664;49.774;8.650;2024-03-23T13:21:33;8.00;99.90
22996;DHT22;11664;49.774;8.650;2024-03-23T13:23:58;8.20;99.90
22996;DHT22;11664;49.774;8.650;2024-03-23T13:26:24;8.50;99.90
22996;DHT22;11664;49.774;8.650;2024-03-23T13:28:49;9.40;99.90
22996;DHT22;11664;49.774;8.650;2024-03-23T13:31:15;9.40;99.90
22996;DHT22;11664;49.774;8.650;2024-03-23T13:33:40;9.50;99.90
22996;DHT22;11664;49.774;8.650;2024-03-23T13:36:10;8.50;99.90
22996;DHT22;11664;49.774;8.650;2024-03-23T13:38:39;9.40;99.90
22996;DHT22;11664;49.774;8.650;2024-03-23T13:41:04;10.70;99.90
22996;DHT22;11664;49.774;8.650;2024-03-23T13:43:34;10.50;99.90
22996;DHT22;11664;49.774;8.650;2024-03-23T13:46:03;9.80;99.90
22996;DHT22;11664;49.774;8.650;2024-03-23T13:48:32;9.50;99.90
22996;DHT22;11664;49.774;8.650;2024-03-23T13:51:01;9.80;99.90
22996;DHT22;11664;49.774;8.650;2024-03-23T13:53:27;9.90;99.90
22996;DHT22;11664;49.774;8.650;2024-03-23T13:55:56;10.10;99.90
22996;DHT22;11664;49.774;8.650;2024-03-23T13:58:24;10.10;99.90
22996;DHT22;11664;49.774;8.650;2024-03-23T14:00:53;9.30;99.90
22996;DHT22;11664;49.774;8.650;2024-03-23T14:03:27;9.30;99.90
22996;DHT22;11664;49.774;8.650;2024-03-23T14:05:58;9.50;99.90
22996;DHT22;11664;49.774;8.650;2024-03-23T14:08:23;10.10;99.90
22996;DHT22;11664;49.774;8.650;2024-03-23T14:10:49;11.00;99.90
22996;DHT22;11664;49.774;8.650;2024-03-23T14:13:14;10.30;99.90
22996;DHT22;11664;49.774;8.650;2024-03-23T14:15:40;9.60;99.90
22996;DHT22;11664;49.774;8.650;2024-03-23T14:18:09;9.70;99.90
22996;DHT22;11664;49.774;8.650;2024-03-23T14:20:34;9.60;99.90
22996;DHT22;11664;49.774;8.650;2024-03-23T14:23:00;9.40;99.90
22996;DHT22;11664;49.774;8.650;2024-03-23T14:25:26;9.60;99.90
22996;DHT22;11664;49.774;8.650;2024-03-23T14:27:54;10.10;99.90
22996;DHT22;11664;49.774;8.650;2024-03-23T14:30:20;11.90;99.90
22996;DHT22;11664;49.774;8.650;2024-03-23T14:32:48;12.30;99.90
22996;DHT22;11664;49.774;8.650;2024-03-23T14:35:14;14.40;99.90
22996;DHT22;11664;49.774;8.650;2024-03-23T14:37:42;14.90;99.90
22996;DHT22;11664;49.774;8.650;2024-03-23T14:40:08;12.40;99.90
22996;DHT22;11664;49.774;8.650;2024-03-23T14:42:34;11.30;99.90
22996;DHT22;11664;49.774;8.650;2024-03-23T14:45:02;10.50;99.90
22996;DHT22;11664;49.774;8.650;2024-03-23T14:47:31;10.00;99.90
22996;DHT22;11664;49.774;8.650;2024-03-23T14:49:56;9.70;99.90
22996;DHT22;11664;49.774;8.650;2024-03-23T14:52:27;9.40;99.90
22996;DHT22;11664;49.774;8.650;2024-03-23T14:54:53;9.40;99.90
22996;DHT22;11664;49.774;8.650;2024-03-23T14:57:27;9.10;99.90
22996;DHT22;11664;49.774;8.650;2024-03-23T15:00:08;8.90;99.90
22996;DHT22;11664;49.774;8.650;2024-03-23T15:02:36;8.90;99.90
22996;DHT22;11664;49.774;8.650;2024-03-23T15:05:08;8.90;99.90
22996;DHT22;11664;49.774;8.650;2024-03-23T15:07:36;8.70;99.90
22996;DHT22;11664;49.774;8.650;2024-03-23T15:10:11;8.70;99.90
22996;DHT22;11664;49.774;8.650;2024-03-23T15:12:37;8.60;99.90
22996;DHT22;11664;49.774;8.650;2024-03-23T15:15:06;8.80;99.90
22996;DHT22;11664;49.774;8.650;2024-03-23T15:17:35;8.70;99.90
22996;DHT22;11664;49.774;8.650;2024-03-23T15:20:05;8.70;99.90
22996;DHT22;11664;49.774;8.650;2024-03-23T15:22:34;8.50;99.90
22996;DHT22;11664;49.774;8.650;2024-03-23T15:25:00;8.20;99.90
22996;DHT22;11664;49.774;8.650;2024-03-23T15:27:25;8.00;99.90
22996;DHT22;11664;49.774;8.650;2024-03-23T15:29:51;8.10;99.90
22996;DHT22;11664;49.774;8.650;2024-03-23T15:32:16;9.50;99.90
22996;DHT22;11664;49.774;8.650;2024-03-23T15:34:43;12.00;99.90
22996;DHT22;11664;49.774;8.650;2024-03-23T15:37:08;11.80;99.90
22996;DHT22;11664;49.774;8.650;2024-03-23T15:39:34;10.00;99.90
22996;DHT22;11664;49.774;8.650;2024-03-23T15:41:59;9.40;99.90
22996;DHT22;11664;49.774;8.650;2024-03-23T15:44:25;9.00;99.90
22996;DHT22;11664;49.774;8.650;2024-03-23T15:46:50;8.80;99.90
22996;DHT22;11664;49.774;8.650;2024-03-23T15:49:19;8.50;99.90
22996;DHT22;11664;49.774;8.650;2024-03-23T15:51:45;8.40;99.90
22996;DHT22;11664;49.774;8.650;2024-03-23T15:54:11;8.20;99.90
22996;DHT22;11664;49.774;8.650;2024-03-23T15:56:36;7.90;99.90
22996;DHT22;11664;49.774;8.650;2024-03-23T15:59:02;7.80;99.90
22996;DHT22;11664;49.774;8.650;2024-03-23T16:01:32;7.90;99.90
22996;DHT22;11664;49.774;8.650;2024-03-23T16:04:03;8.50;99.90
22996;DHT22;11664;49.774;8.650;2024-03-23T16:06:28;10.00;99.90
22996;DHT22;11664;49.774;8.650;2024-03-23T16:09:00;10.10;99.90
22996;DHT22;11664;49.774;8.650;2024-03-23T16:11:26;12.40;99.90
22996;DHT22;11664;49.774;8.650;2024-03-23T16:13:51;11.60;99.90
22996;DHT22;11664;49.774;8.650;2024-03-23T16:16:17;11.40;99.90
22996;DHT22;11664;49.774;8.650;2024-03-23T16:18:45;11.00;99.90
22996;DHT22;11664;49.774;8.650;2024-03-23T16:21:11;10.40;99.90
22996;DHT22;11664;49.774;8.650;2024-03-23T16:23:36;10.60;99.90
22996;DHT22;11664;49.774;8.650;2024-03-23T16:26:07;10.50;99.90
22996;DHT22;11664;49.774;8.650;2024-03-23T16:28:34;9.70;99.90
22996;DHT22;11664;49.774;8.650;2024-03-23T16:31:07;9.40;99.90
22996;DHT22;11664;49.774;8.650;2024-03-23T16:33:34;9.10;99.90
22996;DHT22;11664;49.774;8.650;2024-03-23T16:36:04;9.00;99.90
22996;DHT22;11664;49.774;8.650;2024-03-23T16:38:31;8.70;99.90
22996;DHT22;11664;49.774;8.650;2024-03-23T16:41:01;8.70;99.90
22996;DHT22;11664;49.774;8.650;2024-03-23T16:43:28;8.70;99.90
22996;DHT22;11664;49.774;8.650;2024-03-23T16:46:04;8.60;99.90
22996;DHT22;11664;49.774;8.650;2024-03-23T16:48:31;8.40;99.90
22996;DHT22;11664;49.774;8.650;2024-03-23T16:51:00;8.30;99.90